»·PEaware :: N416JK KBXK-KPSP

N416JK :: KBXK-KPSP

FLIGHT INFORMATION

Flight Status: Arrived
Operator: Privately registered:
United States
More flights under this callsign
Pilot: John K. (4202)
Aircraft: PIPER PA-46-310/350P MALIBU MIRAGE
(PA46)
More flights by this aircraft type
Origin: KBXK Buckeye Mun
United States
Destination: KPSP Palm Springs Intl
United States
More flights between these airports :: More routes between these airports
Route: VICKO V16 PSP
File this flight plan on PilotEdge
Remarks:
Altitude:
(Current/Filed)
8,000ft
Speed:
(Current/Filed)
180kts
Departed: 13-Sep-18 08:15 AM
Arrived: 13-Sep-18 09:24 AM
Distance/Time
Traveled:
192nm/1:09
Distance/Time
To Go:
Arrived

Flight Plot

Page will automatically refresh every two minutes.

Flight plan parsing failed; only flown route is shown


Map Options




Map Legend


Flown Route
Filed Route
Departure Airport
Arrival Airport
Navaid (VOR, NDB)
Fix

Horizontal Profiles

Position Reports

Time Latitude Longitude Heading Altitude Ground
Speed
13-Sep-18 08:01 33.419961 -112.684059 358 1037ft 0kts
13-Sep-18 08:02 33.420119 -112.684091 345 1037ft 13kts
13-Sep-18 08:03 33.420779 -112.685000 264 1037ft 0kts
13-Sep-18 08:04 33.420779 -112.685000 264 1037ft 0kts
13-Sep-18 08:12 33.420348 -112.684135 334 1037ft 0kts
13-Sep-18 08:13 33.420348 -112.684135 334 1037ft 0kts
13-Sep-18 08:14 33.420530 -112.684209 344 1037ft 9kts
13-Sep-18 08:15 33.425252 -112.684999 0 1037ft 26kts
13-Sep-18 08:16 33.428938 -112.685100 273 1037ft 0kts
13-Sep-18 08:17 33.427532 -112.685994 182 1037ft 49kts
13-Sep-18 08:18 33.401893 -112.693144 249 1762ft 122kts
13-Sep-18 08:19 33.415883 -112.729682 295 2885ft 132kts
13-Sep-18 08:20 33.426700 -112.772357 282 3989ft 137kts
13-Sep-18 08:21 33.432539 -112.815161 278 5055ft 127kts
13-Sep-18 08:22 33.436865 -112.855133 277 6122ft 119kts
13-Sep-18 08:23 33.440696 -112.893031 276 7190ft 114kts
13-Sep-18 08:24 33.444375 -112.930515 275 7994ft 131kts
13-Sep-18 08:25 33.449292 -112.981227 276 7995ft 170kts
13-Sep-18 08:26 33.455031 -113.039868 275 7991ft 185kts
13-Sep-18 08:27 33.460939 -113.100982 275 7989ft 188kts
13-Sep-18 08:28 33.467080 -113.162915 275 7993ft 191kts
13-Sep-18 08:29 33.473195 -113.226347 275 7992ft 196kts
13-Sep-18 08:30 33.479309 -113.290608 275 7991ft 197kts
13-Sep-18 08:31 33.485476 -113.355860 275 7991ft 197kts
13-Sep-18 08:32 33.491532 -113.420310 275 7991ft 197kts
13-Sep-18 08:33 33.497562 -113.484832 275 7991ft 197kts
13-Sep-18 08:34 33.503568 -113.549388 275 7986ft 197kts
13-Sep-18 08:35 33.509557 -113.614085 274 7970ft 198kts
13-Sep-18 08:36 33.515573 -113.679682 274 7953ft 199kts
13-Sep-18 08:37 33.521648 -113.745691 273 7940ft 207kts
13-Sep-18 08:38 33.527786 -113.814291 273 7984ft 210kts
13-Sep-18 08:39 33.534020 -113.883533 273 7989ft 213kts
13-Sep-18 08:40 33.540142 -113.953501 272 7989ft 214kts
13-Sep-18 08:41 33.544900 -114.022999 276 7999ft 204kts
13-Sep-18 08:42 33.549824 -114.088938 276 7986ft 199kts
13-Sep-18 08:43 33.554620 -114.153882 275 7990ft 198kts
13-Sep-18 08:44 33.559244 -114.218909 275 7991ft 198kts
13-Sep-18 08:45 33.563747 -114.283675 274 7991ft 198kts
13-Sep-18 08:46 33.568231 -114.348637 274 7991ft 198kts
13-Sep-18 08:47 33.572740 -114.414470 274 7991ft 198kts
13-Sep-18 08:48 33.577364 -114.479408 274 7991ft 198kts
13-Sep-18 08:49 33.581549 -114.544209 274 7990ft 198kts
13-Sep-18 08:50 33.585876 -114.609162 274 7990ft 198kts
13-Sep-18 08:51 33.590185 -114.674083 275 7990ft 198kts
13-Sep-18 08:52 33.594531 -114.740059 274 7990ft 198kts
13-Sep-18 08:53 33.603280 -114.804145 281 7990ft 198kts
13-Sep-18 08:54 33.614147 -114.867830 281 7989ft 198kts
13-Sep-18 08:55 33.624999 -114.931754 281 7990ft 198kts
13-Sep-18 08:56 33.635771 -114.995362 281 7989ft 198kts
13-Sep-18 08:57 33.646712 -115.060174 281 7989ft 198kts
13-Sep-18 08:58 33.657554 -115.124164 281 7991ft 198kts
13-Sep-18 08:59 33.668476 -115.188266 281 7991ft 199kts
13-Sep-18 09:00 33.679284 -115.252509 281 7985ft 199kts
13-Sep-18 09:01 33.689637 -115.314502 280 7975ft 199kts
13-Sep-18 09:02 33.700453 -115.379588 279 7964ft 199kts
13-Sep-18 09:03 33.711120 -115.444030 279 7954ft 199kts
13-Sep-18 09:04 33.721707 -115.508443 279 7953ft 199kts
13-Sep-18 09:05 33.732312 -115.573007 279 7953ft 199kts
13-Sep-18 09:06 33.742862 -115.637421 279 7953ft 199kts
13-Sep-18 09:07 33.753411 -115.702569 281 7954ft 199kts
13-Sep-18 09:08 33.763986 -115.767065 281 7953ft 199kts
13-Sep-18 09:09 33.774444 -115.831494 281 7953ft 199kts
13-Sep-18 09:10 33.784900 -115.896177 281 7945ft 199kts
13-Sep-18 09:11 33.795367 -115.960729 281 7944ft 199kts
13-Sep-18 09:12 33.805863 -116.026034 281 7944ft 199kts
13-Sep-18 09:13 33.815672 -116.087344 281 7938ft 176kts
13-Sep-18 09:14 33.824180 -116.140170 281 7940ft 149kts
13-Sep-18 09:15 33.831079 -116.183486 281 7945ft 129kts
13-Sep-18 09:16 33.836684 -116.220996 274 7226ft 113kts
13-Sep-18 09:17 33.832440 -116.257566 262 5572ft 110kts
13-Sep-18 09:18 33.826329 -116.292668 258 3901ft 110kts
13-Sep-18 09:19 33.820127 -116.327138 258 2578ft 107kts
13-Sep-18 09:20 33.814470 -116.361131 258 2036ft 104kts
13-Sep-18 09:21 33.806816 -116.393679 252 1652ft 99kts
13-Sep-18 09:22 33.798890 -116.424983 252 1401ft 94kts
13-Sep-18 09:23 33.793036 -116.452531 267 1313ft 85kts
13-Sep-18 09:24 33.799973 -116.479266 319 793ft 83kts
13-Sep-18 09:25 33.818490 -116.494942 324 628ft 81kts
13-Sep-18 09:26 33.829772 -116.504641 19 481ft 10kts
13-Sep-18 09:27 33.827731 -116.502081 145 481ft 35kts
13-Sep-18 09:28 33.823626 -116.498563 98 481ft 7kts

Navigation Log

Ident Type
Flight plan parsing failed, navigation log unavailable